createdAt,value
2024-02-14T00:02:07.151Z,7.47
2024-02-14T00:04:33.825Z,7.42
2024-02-14T00:07:00.852Z,7.64
2024-02-14T00:09:27.518Z,7.69
2024-02-14T00:11:54.182Z,7.36
2024-02-14T00:14:21.453Z,7.69
2024-02-14T00:16:48.095Z,7.36
2024-02-14T00:19:15.331Z,7.36
2024-02-14T00:21:42.193Z,7.34
2024-02-14T00:24:09.048Z,6.55
2024-02-14T00:26:35.968Z,6.98
2024-02-14T00:29:02.776Z,7.15
2024-02-14T00:31:29.522Z,7.23
2024-02-14T00:33:57.237Z,6.91
2024-02-14T00:36:24.494Z,7.36
2024-02-14T00:38:51.162Z,7.32
2024-02-14T00:41:17.856Z,7.15
2024-02-14T00:43:44.548Z,7.53
2024-02-14T00:46:17.446Z,7.66
2024-02-14T00:48:45.805Z,7.84
2024-02-14T00:51:13.466Z,7.37
2024-02-14T00:53:40.516Z,7.04
2024-02-14T00:56:07.469Z,7.22
2024-02-14T00:58:34.115Z,7.24
2024-02-14T01:01:00.805Z,7.12
2024-02-14T01:03:27.706Z,7.66
2024-02-14T01:05:56.216Z,7.83
2024-02-14T01:08:22.957Z,7.62
2024-02-14T01:10:51.564Z,7.90
2024-02-14T01:13:19.241Z,6.88
2024-02-14T01:15:45.929Z,7.10
2024-02-14T01:18:13.025Z,7.22
2024-02-14T01:20:39.884Z,7.77
2024-02-14T01:23:06.538Z,7.63
2024-02-14T01:25:34.086Z,7.46
2024-02-14T01:28:01.088Z,7.27
2024-02-14T01:30:27.988Z,7.63
2024-02-14T01:32:55.374Z,7.72
2024-02-14T01:35:22.239Z,7.28
2024-02-14T01:37:48.812Z,7.38
2024-02-14T01:40:16.040Z,7.45
2024-02-14T01:42:42.661Z,7.01
2024-02-14T01:45:09.869Z,7.46
2024-02-14T01:47:36.648Z,6.92
2024-02-14T01:50:03.727Z,7.48
2024-02-14T01:52:30.526Z,7.50
2024-02-14T01:54:57.323Z,6.97
2024-02-14T01:57:25.244Z,7.36
2024-02-14T01:59:54.484Z,7.68
2024-02-14T02:02:21.426Z,8.03
2024-02-14T02:04:48.429Z,7.51
2024-02-14T02:07:15.185Z,7.81
2024-02-14T02:09:41.780Z,7.58
2024-02-14T02:12:09.265Z,7.67
2024-02-14T02:14:36.183Z,8.09
2024-02-14T02:17:06.291Z,7.51
2024-02-14T02:19:34.200Z,7.60
2024-02-14T02:22:01.984Z,7.40
2024-02-14T02:24:28.611Z,7.45
2024-02-14T02:26:56.238Z,7.15
2024-02-14T02:29:23.343Z,7.16
2024-02-14T02:31:50.065Z,7.10
2024-02-14T02:36:44.785Z,7.28
2024-02-14T02:39:13.657Z,7.13
2024-02-14T02:41:40.360Z,7.88
2024-02-14T02:44:08.070Z,7.29
2024-02-14T02:46:35.194Z,7.07
2024-02-14T02:49:03.428Z,7.62
2024-02-14T02:51:31.013Z,7.61
2024-02-14T02:53:58.619Z,7.60
2024-02-14T02:56:28.436Z,7.51
2024-02-14T02:58:58.862Z,7.66
2024-02-14T03:01:26.313Z,7.76
2024-02-14T03:03:53.178Z,7.57
2024-02-14T03:06:21.154Z,7.63
2024-02-14T03:08:47.826Z,7.31
2024-02-14T03:11:16.760Z,7.81
2024-02-14T03:13:45.403Z,7.88
2024-02-14T03:16:12.375Z,7.14
2024-02-14T03:18:39.961Z,7.65
2024-02-14T03:21:07.588Z,7.41
2024-02-14T03:23:34.392Z,8.02
2024-02-14T03:26:01.110Z,7.58
2024-02-14T03:28:28.740Z,7.86
2024-02-14T03:30:55.410Z,8.05
2024-02-14T03:33:23.276Z,7.92
2024-02-14T03:35:50.035Z,7.74
2024-02-14T03:38:29.192Z,7.56
2024-02-14T03:40:55.972Z,7.44
2024-02-14T03:43:24.973Z,7.37
2024-02-14T03:45:52.950Z,7.92
2024-02-14T03:48:19.757Z,7.73
2024-02-14T03:50:46.587Z,7.36
2024-02-14T03:53:13.379Z,7.66
2024-02-14T03:55:40.026Z,7.68
2024-02-14T03:58:07.613Z,7.89
2024-02-14T04:00:34.842Z,7.88
2024-02-14T04:03:01.600Z,8.15
2024-02-14T04:05:31.297Z,7.95
2024-02-14T04:07:58.129Z,7.77
2024-02-14T04:10:25.290Z,8.21
2024-02-14T04:12:51.917Z,7.95
2024-02-14T04:15:18.728Z,7.74
2024-02-14T04:17:45.519Z,7.49
2024-02-14T04:20:12.371Z,7.14
2024-02-14T04:22:38.987Z,7.34
2024-02-14T04:25:06.162Z,8.01
2024-02-14T04:27:32.821Z,7.67
2024-02-14T04:30:01.191Z,7.84
2024-02-14T04:32:28.020Z,7.40
2024-02-14T04:34:55.016Z,6.97
2024-02-14T04:37:21.742Z,7.34
2024-02-14T04:39:51.118Z,6.95
2024-02-14T04:42:17.937Z,7.95
2024-02-14T04:44:45.048Z,7.98
2024-02-14T04:47:11.830Z,7.29
2024-02-14T04:49:38.783Z,7.71
2024-02-14T04:52:06.013Z,7.97
2024-02-14T04:54:33.015Z,8.03
2024-02-14T04:57:02.101Z,7.68
2024-02-14T04:59:30.128Z,7.49
2024-02-14T05:01:57.609Z,7.56
2024-02-14T05:04:24.474Z,7.46
2024-02-14T05:06:53.014Z,7.65
2024-02-14T05:09:21.782Z,7.09
2024-02-14T05:11:48.430Z,7.33
2024-02-14T05:14:15.168Z,7.42
2024-02-14T05:16:41.849Z,7.05
2024-02-14T05:19:08.677Z,7.20
2024-02-14T05:21:35.807Z,6.53
2024-02-14T05:24:02.964Z,7.20
2024-02-14T05:26:29.736Z,6.97
2024-02-14T05:28:56.647Z,7.17
2024-02-14T05:31:23.391Z,7.10
2024-02-14T05:33:50.226Z,6.93
2024-02-14T05:36:17.001Z,6.53
2024-02-14T05:38:43.746Z,6.76
2024-02-14T05:41:11.799Z,6.73
2024-02-14T05:43:39.792Z,7.20
2024-02-14T05:46:06.650Z,7.29
2024-02-14T05:48:45.625Z,7.42
2024-02-14T05:51:12.444Z,7.31
2024-02-14T05:53:39.116Z,7.00
2024-02-14T05:56:05.866Z,6.62
2024-02-14T05:58:33.169Z,7.10
2024-02-14T06:00:59.931Z,6.89
2024-02-14T06:03:26.657Z,6.87
2024-02-14T06:05:53.633Z,7.01
2024-02-14T06:08:20.589Z,7.11
2024-02-14T06:10:47.420Z,7.11
2024-02-14T06:13:14.030Z,6.74
2024-02-14T06:15:40.721Z,7.28
2024-02-14T06:18:07.563Z,7.28
2024-02-14T06:20:34.249Z,7.21
2024-02-14T06:23:05.195Z,6.93
2024-02-14T06:25:32.755Z,6.79
2024-02-14T06:27:59.355Z,6.44
2024-02-14T06:30:28.816Z,6.90
2024-02-14T06:33:02.151Z,6.74
2024-02-14T06:35:30.473Z,6.89
2024-02-14T06:38:03.578Z,7.11
2024-02-14T06:40:31.770Z,7.05
2024-02-14T06:42:59.728Z,6.84
2024-02-14T06:45:30.212Z,7.37
2024-02-14T06:47:57.274Z,7.43
2024-02-14T06:50:26.526Z,6.50
2024-02-14T06:52:53.659Z,6.98
2024-02-14T06:55:20.388Z,7.19
2024-02-14T06:57:47.040Z,6.78
2024-02-14T07:00:14.294Z,6.67
2024-02-14T07:02:41.065Z,7.11
2024-02-14T07:05:09.222Z,6.99
2024-02-14T07:07:35.837Z,6.74
2024-02-14T07:10:02.786Z,6.67
2024-02-14T07:12:31.374Z,6.63
2024-02-14T07:14:58.569Z,6.63
2024-02-14T07:17:25.512Z,6.41
2024-02-14T07:19:52.361Z,6.61
2024-02-14T07:22:20.537Z,6.85
2024-02-14T07:24:47.593Z,7.07
2024-02-14T07:27:16.357Z,7.43
2024-02-14T07:29:43.423Z,7.00
2024-02-14T07:32:10.128Z,7.25
2024-02-14T07:34:40.518Z,6.40
2024-02-14T07:37:08.098Z,7.05
2024-02-14T07:39:36.096Z,6.88
2024-02-14T07:42:03.985Z,6.90
2024-02-14T07:44:31.221Z,6.51
2024-02-14T07:47:00.828Z,6.47
2024-02-14T07:49:28.713Z,6.33
2024-02-14T07:51:55.521Z,6.50
2024-02-14T07:54:22.223Z,6.65
2024-02-14T07:56:49.035Z,7.01
2024-02-14T07:59:15.688Z,6.98
2024-02-14T08:01:44.196Z,6.73
2024-02-14T08:04:11.021Z,6.59
2024-02-14T08:06:37.772Z,6.54
2024-02-14T08:09:07.898Z,6.17
2024-02-14T08:11:34.901Z,6.00
2024-02-14T08:14:01.570Z,5.86
2024-02-14T08:16:28.254Z,5.62
2024-02-14T08:19:00.383Z,6.10
2024-02-14T08:21:31.528Z,5.79
2024-02-14T08:24:00.820Z,6.42
2024-02-14T08:26:29.150Z,6.42
2024-02-14T08:28:56.043Z,6.95
2024-02-14T08:31:22.866Z,6.29
2024-02-14T08:33:49.763Z,6.32
2024-02-14T08:36:18.293Z,6.08
2024-02-14T08:38:45.017Z,5.93
2024-02-14T08:41:12.004Z,5.91
2024-02-14T08:43:38.667Z,5.99
2024-02-14T08:46:11.119Z,5.81
2024-02-14T08:48:42.919Z,5.86
2024-02-14T08:51:10.515Z,6.45
2024-02-14T08:53:37.741Z,6.65
2024-02-14T08:56:04.818Z,6.44
2024-02-14T08:58:31.442Z,6.00
2024-02-14T09:01:05.292Z,5.99
2024-02-14T09:03:39.845Z,6.12
2024-02-14T09:06:06.909Z,6.01
2024-02-14T09:08:33.597Z,5.97
2024-02-14T09:11:00.384Z,6.00
2024-02-14T09:13:28.744Z,6.55
2024-02-14T09:15:55.803Z,6.71
2024-02-14T09:18:22.667Z,6.37
2024-02-14T09:20:51.072Z,6.20
2024-02-14T09:23:23.590Z,6.20
2024-02-14T09:25:50.638Z,6.72
2024-02-14T09:28:17.406Z,7.40
2024-02-14T09:30:44.286Z,7.82
2024-02-14T09:33:11.213Z,7.25
2024-02-14T09:35:40.936Z,7.50
2024-02-14T09:38:07.729Z,7.61
2024-02-14T09:40:34.924Z,7.26
2024-02-14T09:43:06.389Z,7.04
2024-02-14T09:45:35.157Z,6.91
2024-02-14T09:48:02.711Z,7.20
2024-02-14T09:50:32.028Z,7.07
2024-02-14T09:52:59.981Z,6.76
2024-02-14T09:55:27.728Z,6.90
2024-02-14T09:57:56.293Z,7.05
2024-02-14T10:00:23.626Z,6.56
2024-02-14T10:02:51.278Z,6.71
2024-02-14T10:05:18.201Z,6.25
2024-02-14T10:07:45.493Z,6.61
2024-02-14T10:10:14.236Z,6.78
2024-02-14T10:12:42.268Z,6.66
2024-02-14T10:15:09.990Z,6.53
2024-02-14T10:17:37.527Z,6.64
2024-02-14T10:20:07.472Z,6.74
2024-02-14T10:22:38.893Z,7.40
2024-02-14T10:25:13.146Z,7.02
2024-02-14T10:27:40.675Z,6.69
2024-02-14T10:30:11.331Z,6.46
2024-02-14T10:32:39.104Z,6.99
2024-02-14T10:35:11.122Z,6.93
2024-02-14T10:37:37.766Z,6.89
2024-02-14T10:40:08.166Z,6.80
2024-02-14T10:42:35.069Z,6.59
2024-02-14T10:45:02.542Z,6.28
2024-02-14T10:47:36.268Z,6.66
2024-02-14T10:50:07.939Z,6.96
2024-02-14T10:52:38.179Z,6.46
2024-02-14T10:55:06.581Z,6.74
2024-02-14T10:57:33.659Z,6.33
2024-02-14T11:00:10.498Z,6.78
2024-02-14T11:02:39.200Z,7.03
2024-02-14T11:05:06.191Z,6.83
2024-02-14T11:07:32.846Z,7.30
2024-02-14T11:10:09.084Z,7.47
2024-02-14T11:12:37.679Z,6.74
2024-02-14T11:15:19.126Z,6.85
2024-02-14T11:17:46.287Z,6.76
2024-02-14T11:20:37.168Z,7.05
2024-02-14T11:23:15.298Z,7.70
2024-02-14T11:25:44.964Z,7.13
2024-02-14T11:28:18.308Z,7.06
2024-02-14T11:30:45.470Z,7.29
2024-02-14T11:33:22.050Z,7.28
2024-02-14T11:35:58.247Z,7.80
2024-02-14T11:38:27.089Z,7.51
2024-02-14T11:40:58.124Z,7.42
2024-02-14T11:43:26.101Z,8.03
2024-02-14T11:45:55.765Z,7.65
2024-02-14T11:48:24.966Z,7.36
2024-02-14T11:50:53.592Z,7.71
2024-02-14T11:53:21.325Z,7.99
2024-02-14T11:55:48.122Z,7.95
2024-02-14T11:58:17.467Z,7.61
2024-02-14T12:00:46.341Z,7.35
2024-02-14T12:03:23.872Z,7.72
2024-02-14T12:05:54.697Z,7.72
2024-02-14T12:08:22.879Z,7.92
2024-02-14T12:10:51.307Z,7.51
2024-02-14T12:13:25.318Z,7.36
2024-02-14T12:15:53.210Z,7.32
2024-02-14T12:18:22.279Z,7.36
2024-02-14T12:20:55.849Z,7.14
2024-02-14T12:23:24.667Z,7.28
2024-02-14T12:25:51.602Z,7.76
2024-02-14T12:28:19.431Z,7.73
2024-02-14T12:30:48.179Z,8.04
2024-02-14T12:33:15.943Z,8.33
2024-02-14T12:35:47.956Z,8.03
2024-02-14T12:38:15.787Z,7.78
2024-02-14T12:40:43.314Z,7.90
2024-02-14T12:43:11.637Z,8.23
2024-02-14T12:45:39.245Z,8.08
2024-02-14T12:48:07.158Z,8.18
2024-02-14T12:50:33.920Z,8.11
2024-02-14T12:53:00.608Z,8.01
2024-02-14T12:55:29.652Z,7.75
2024-02-14T12:57:57.869Z,8.13
2024-02-14T13:00:25.651Z,8.69
2024-02-14T13:02:52.585Z,8.07
2024-02-14T13:05:19.292Z,8.05
2024-02-14T13:07:46.585Z,7.88
2024-02-14T13:10:13.388Z,8.32
2024-02-14T13:12:40.179Z,7.98
2024-02-14T13:15:07.590Z,8.61
2024-02-14T13:17:34.417Z,8.57
2024-02-14T13:20:01.408Z,8.25
2024-02-14T13:22:28.776Z,8.61
2024-02-14T13:24:57.098Z,8.35
2024-02-14T13:27:24.597Z,8.63
2024-02-14T13:29:51.440Z,8.70
2024-02-14T13:32:18.105Z,8.51
2024-02-14T13:34:49.357Z,8.47
2024-02-14T13:37:17.342Z,8.85
2024-02-14T13:39:45.050Z,9.03
2024-02-14T13:42:11.875Z,9.03
2024-02-14T13:44:38.672Z,9.56
2024-02-14T13:47:05.587Z,9.69
2024-02-14T13:49:32.989Z,9.43
2024-02-14T13:51:59.710Z,9.46
2024-02-14T13:54:26.584Z,9.58
2024-02-14T13:56:53.478Z,9.35
2024-02-14T13:59:20.127Z,9.15
2024-02-14T14:01:47.893Z,9.08
2024-02-14T14:04:15.199Z,9.26
2024-02-14T14:06:42.158Z,9.39
2024-02-14T14:09:10.009Z,9.46
2024-02-14T14:11:36.732Z,9.25
2024-02-14T14:14:03.386Z,9.63
2024-02-14T14:16:30.032Z,9.56
2024-02-14T14:18:57.856Z,8.87
2024-02-14T14:21:24.517Z,9.47
2024-02-14T14:23:51.380Z,9.36
2024-02-14T14:26:18.119Z,9.45
2024-02-14T14:28:44.800Z,9.50
2024-02-14T14:31:13.051Z,9.08
2024-02-14T14:33:40.177Z,9.46
2024-02-14T14:36:08.022Z,9.78
2024-02-14T14:38:34.817Z,9.70
2024-02-14T14:41:01.467Z,9.54
2024-02-14T14:43:29.146Z,9.55
2024-02-14T14:45:58.250Z,9.88
2024-02-14T14:48:25.324Z,9.62
2024-02-14T14:50:52.248Z,8.95
2024-02-14T14:53:19.056Z,8.87
2024-02-14T14:55:57.284Z,8.98
2024-02-14T14:58:27.311Z,9.03
2024-02-14T15:01:01.990Z,9.01
2024-02-14T15:03:28.764Z,9.34
2024-02-14T15:05:55.730Z,9.39
2024-02-14T15:08:29.442Z,8.75
2024-02-14T15:10:57.117Z,8.76
2024-02-14T15:13:25.269Z,8.36
2024-02-14T15:15:53.121Z,8.56
2024-02-14T15:18:20.292Z,8.38
2024-02-14T15:20:48.252Z,8.49
2024-02-14T15:23:15.032Z,7.99
2024-02-14T15:25:41.738Z,8.29
2024-02-14T15:28:15.403Z,8.47
2024-02-14T15:31:00.421Z,8.45
2024-02-14T15:33:30.422Z,8.70
2024-02-14T15:35:58.981Z,8.47
2024-02-14T15:38:27.009Z,8.40
2024-02-14T15:40:58.346Z,8.73
2024-02-14T15:43:26.516Z,8.53
2024-02-14T15:45:54.106Z,8.24
2024-02-14T15:48:21.201Z,8.56
2024-02-14T15:50:48.834Z,8.69
2024-02-14T15:53:16.498Z,8.35
2024-02-14T15:55:44.005Z,8.25
2024-02-14T15:58:19.668Z,8.06
2024-02-14T16:00:46.341Z,8.55
2024-02-14T16:03:13.335Z,8.55
2024-02-14T16:05:40.550Z,9.00
2024-02-14T16:08:08.053Z,8.60
2024-02-14T16:10:35.735Z,8.42
2024-02-14T16:13:02.506Z,8.31
2024-02-14T16:15:30.208Z,8.20
2024-02-14T16:17:57.160Z,7.86
2024-02-14T16:20:24.055Z,7.72
2024-02-14T16:22:51.298Z,7.65
2024-02-14T16:25:18.393Z,7.54
2024-02-14T16:27:47.213Z,8.05
2024-02-14T16:30:16.464Z,8.11
2024-02-14T16:32:45.212Z,8.43
2024-02-14T16:35:12.397Z,8.35
2024-02-14T16:37:39.204Z,8.72
2024-02-14T16:40:08.500Z,8.96
2024-02-14T16:42:35.255Z,9.10
2024-02-14T16:45:05.289Z,8.66
2024-02-14T16:47:32.310Z,8.39
2024-02-14T16:49:59.277Z,8.04
2024-02-14T16:52:26.087Z,8.27
2024-02-14T16:54:53.160Z,8.69
2024-02-14T16:57:21.006Z,8.65
2024-02-14T16:59:48.049Z,8.63
2024-02-14T17:02:15.909Z,8.05
2024-02-14T17:04:43.157Z,8.17
2024-02-14T17:07:13.365Z,7.91
2024-02-14T17:09:40.882Z,7.87
2024-02-14T17:12:09.822Z,8.18
2024-02-14T17:14:39.659Z,8.17
2024-02-14T17:17:08.466Z,7.93
2024-02-14T17:19:36.047Z,7.55
2024-02-14T17:22:03.081Z,7.61
2024-02-14T17:24:30.580Z,7.93
2024-02-14T17:26:57.649Z,7.77
2024-02-14T17:29:24.601Z,7.50
2024-02-14T17:31:51.672Z,7.59
2024-02-14T17:34:18.531Z,7.85
2024-02-14T17:36:46.421Z,7.94
2024-02-14T17:39:14.009Z,7.96
2024-02-14T17:41:41.378Z,8.14
2024-02-14T17:44:08.053Z,8.01
2024-02-14T17:46:35.280Z,7.77
2024-02-14T17:49:03.813Z,8.09
2024-02-14T17:51:31.414Z,8.56
2024-02-14T17:53:58.086Z,8.85
2024-02-14T17:56:26.046Z,8.54
2024-02-14T17:58:52.784Z,7.86
2024-02-14T18:01:20.008Z,7.71
2024-02-14T18:03:46.710Z,7.60
2024-02-14T18:06:13.525Z,7.53
2024-02-14T18:08:40.292Z,7.75
2024-02-14T18:11:06.993Z,7.73
2024-02-14T18:13:34.098Z,7.92
2024-02-14T18:16:00.970Z,8.06
2024-02-14T18:18:29.022Z,7.69
2024-02-14T18:20:56.715Z,7.59
2024-02-14T18:23:23.390Z,7.36
2024-02-14T18:25:50.022Z,8.06
2024-02-14T18:28:16.684Z,7.89
2024-02-14T18:30:43.449Z,7.68
2024-02-14T18:33:12.558Z,7.88
2024-02-14T18:35:40.291Z,7.51
2024-02-14T18:38:09.743Z,7.84
2024-02-14T18:40:37.334Z,7.32
2024-02-14T18:43:04.473Z,7.29
2024-02-14T18:45:31.136Z,7.60
2024-02-14T18:47:57.924Z,7.61
2024-02-14T18:50:25.361Z,7.67
2024-02-14T18:52:52.081Z,7.64
2024-02-14T18:55:18.759Z,8.08
2024-02-14T18:57:45.491Z,7.70
2024-02-14T19:00:13.021Z,7.29
2024-02-14T19:02:43.512Z,7.26
2024-02-14T19:05:10.481Z,7.15
2024-02-14T19:07:38.922Z,7.05
2024-02-14T19:10:06.690Z,7.00
2024-02-14T19:12:36.302Z,7.37
2024-02-14T19:15:04.896Z,7.49
2024-02-14T19:17:33.181Z,7.74
2024-02-14T19:20:00.256Z,7.92
2024-02-14T19:22:27.025Z,7.86
2024-02-14T19:24:54.782Z,7.96
2024-02-14T19:27:22.322Z,7.63
2024-02-14T19:29:49.178Z,7.49
2024-02-14T19:32:15.786Z,7.57
2024-02-14T19:34:42.700Z,7.72
2024-02-14T19:37:09.637Z,7.68
2024-02-14T19:39:36.401Z,7.70
2024-02-14T19:42:03.159Z,7.94
2024-02-14T19:44:29.774Z,7.69
2024-02-14T19:46:56.736Z,7.96
2024-02-14T19:49:24.840Z,8.12
2024-02-14T19:51:51.636Z,8.54
2024-02-14T19:54:18.727Z,7.63
2024-02-14T19:59:14.286Z,7.16
2024-02-14T20:01:41.064Z,7.32
2024-02-14T20:04:10.541Z,7.43
2024-02-14T20:06:37.899Z,7.02
2024-02-14T20:09:04.664Z,6.81
2024-02-14T20:11:31.443Z,6.92
2024-02-14T20:13:58.086Z,7.20
2024-02-14T20:16:27.368Z,7.24
2024-02-14T20:18:55.406Z,7.44
2024-02-14T20:21:22.370Z,6.93
2024-02-14T20:23:49.131Z,6.22
2024-02-14T20:26:17.623Z,6.88
2024-02-14T20:28:45.192Z,7.53
2024-02-14T20:31:11.956Z,7.54
2024-02-14T20:33:38.936Z,7.52
2024-02-14T20:36:06.298Z,7.00
2024-02-14T20:38:33.157Z,6.68
2024-02-14T20:40:59.853Z,6.79
2024-02-14T20:43:28.687Z,6.74
2024-02-14T20:45:55.324Z,7.06
2024-02-14T20:48:23.589Z,6.88
2024-02-14T20:50:50.490Z,6.50
2024-02-14T20:53:17.822Z,6.69
2024-02-14T20:55:45.578Z,6.78
2024-02-14T20:58:12.312Z,7.05
2024-02-14T21:00:38.954Z,6.43
2024-02-14T21:03:05.726Z,6.66
2024-02-14T21:05:32.406Z,6.98
2024-02-14T21:07:59.037Z,6.82
2024-02-14T21:10:28.764Z,7.05
2024-02-14T21:12:55.666Z,6.63
2024-02-14T21:15:22.381Z,6.29
2024-02-14T21:17:49.133Z,6.04
2024-02-14T21:20:16.662Z,6.70
2024-02-14T21:22:43.586Z,7.05
2024-02-14T21:25:11.673Z,6.34
2024-02-14T21:27:38.755Z,6.13
2024-02-14T21:30:07.250Z,6.25
2024-02-14T21:32:33.978Z,6.73
2024-02-14T21:35:00.746Z,6.64
2024-02-14T21:37:27.368Z,6.79
2024-02-14T21:39:53.977Z,6.88
2024-02-14T21:42:21.076Z,6.66
2024-02-14T21:44:47.800Z,6.34
2024-02-14T21:47:15.116Z,6.25
2024-02-14T21:49:43.431Z,6.36
2024-02-14T21:52:10.187Z,6.11
2024-02-14T21:54:37.525Z,6.82
2024-02-14T21:57:05.739Z,6.57
2024-02-14T21:59:32.487Z,6.05
2024-02-14T22:01:59.168Z,6.78
2024-02-14T22:04:25.848Z,6.20
2024-02-14T22:06:52.712Z,6.35
2024-02-14T22:09:22.081Z,6.53
2024-02-14T22:11:49.258Z,6.48
2024-02-14T22:14:16.230Z,6.50
2024-02-14T22:16:43.296Z,6.79
2024-02-14T22:19:11.864Z,6.50
2024-02-14T22:21:38.814Z,6.31
2024-02-14T22:24:06.501Z,6.77
2024-02-14T22:26:33.374Z,7.22
2024-02-14T22:29:00.045Z,6.73
2024-02-14T22:31:27.213Z,6.59
2024-02-14T22:33:54.496Z,6.73
2024-02-14T22:36:21.391Z,6.07
2024-02-14T22:38:48.517Z,6.21
2024-02-14T22:41:15.340Z,6.66
2024-02-14T22:43:42.053Z,6.70
2024-02-14T22:46:12.761Z,6.40
2024-02-14T22:48:39.839Z,6.59
2024-02-14T22:51:06.876Z,6.24
2024-02-14T22:53:35.104Z,6.82
2024-02-14T22:56:02.135Z,6.47
2024-02-14T22:58:28.747Z,6.88
2024-02-14T23:00:55.397Z,6.19
2024-02-14T23:03:22.080Z,6.24
2024-02-14T23:05:48.802Z,6.43
2024-02-14T23:08:15.475Z,6.79
2024-02-14T23:10:42.059Z,6.33
2024-02-14T23:13:08.807Z,6.92
2024-02-14T23:15:35.423Z,6.74
2024-02-14T23:18:02.292Z,6.50
2024-02-14T23:20:29.118Z,6.56
2024-02-14T23:22:55.776Z,6.54
2024-02-14T23:25:22.530Z,6.10
2024-02-14T23:27:49.170Z,6.13
2024-02-14T23:30:16.337Z,6.07
2024-02-14T23:32:44.179Z,5.81
2024-02-14T23:35:11.243Z,6.26
2024-02-14T23:37:39.878Z,6.67
2024-02-14T23:40:10.075Z,5.96
2024-02-14T23:42:43.966Z,6.16
2024-02-14T23:45:12.262Z,6.23
2024-02-14T23:47:40.072Z,6.53
2024-02-14T23:50:11.771Z,6.38
2024-02-14T23:52:39.967Z,6.63
2024-02-14T23:55:06.983Z,6.46
2024-02-14T23:57:33.692Z,6.32
